createdAt,value
2019-04-20T00:01:32.662Z,17.57
2019-04-20T00:03:59.562Z,15.93
2019-04-20T00:06:27.098Z,16.60
2019-04-20T00:09:03.274Z,15.80
2019-04-20T00:11:28.356Z,17.60
2019-04-20T00:14:01.262Z,15.90
2019-04-20T00:16:19.458Z,14.73
2019-04-20T00:18:51.954Z,15.23
2019-04-20T00:21:16.473Z,16.60
2019-04-20T00:23:46.806Z,18.90
2019-04-20T00:26:21.423Z,19.67
2019-04-20T00:29:00.334Z,21.87
2019-04-20T00:31:23.667Z,20.87
2019-04-20T00:33:50.677Z,23.23
2019-04-20T00:36:05.854Z,23.57
2019-04-20T00:38:40.849Z,24.40
2019-04-20T00:41:06.999Z,25.93
2019-04-20T00:43:34.278Z,23.80
2019-04-20T00:46:06.937Z,26.03
2019-04-20T00:48:37.440Z,23.63
2019-04-20T00:51:20.273Z,24.97
2019-04-20T00:53:32.504Z,25.83
2019-04-20T00:55:52.951Z,24.70
2019-04-20T00:58:27.574Z,25.23
2019-04-20T01:01:07.182Z,22.97
2019-04-20T01:03:33.930Z,21.97
2019-04-20T01:06:07.920Z,25.73
2019-04-20T01:08:13.230Z,26.03
2019-04-20T01:10:46.173Z,25.97
2019-04-20T01:13:13.994Z,25.20
2019-04-20T01:15:46.456Z,25.33
2019-04-20T01:18:05.228Z,22.93
2019-04-20T01:20:31.956Z,22.80
2019-04-20T01:23:04.768Z,24.13
2019-04-20T01:25:33.827Z,20.93
2019-04-20T01:28:22.280Z,22.23
2019-04-20T01:30:30.165Z,22.43
2019-04-20T01:33:03.901Z,17.70
2019-04-20T01:35:40.969Z,22.97
2019-04-20T01:38:06.897Z,26.90
2019-04-20T01:40:19.096Z,21.67
2019-04-20T01:42:46.772Z,23.60
2019-04-20T01:45:19.832Z,20.67
2019-04-20T01:47:46.195Z,19.10
2019-04-20T01:50:18.632Z,21.33
2019-04-20T01:52:50.384Z,22.47
2019-04-20T01:55:24.420Z,24.83
2019-04-20T01:57:54.943Z,19.23
2019-04-20T02:00:11.103Z,21.53
2019-04-20T02:02:36.361Z,24.30
2019-04-20T02:05:10.254Z,22.37
2019-04-20T02:07:35.514Z,22.50
2019-04-20T02:10:02.853Z,22.57
2019-04-20T02:12:30.453Z,22.17
2019-04-20T02:14:59.457Z,22.57
2019-04-20T02:17:33.396Z,19.00
2019-04-20T02:20:10.722Z,20.47
2019-04-20T02:22:40.324Z,22.80
2019-04-20T02:24:48.949Z,21.53
2019-04-20T02:27:19.747Z,21.87
2019-04-20T02:30:07.686Z,22.43
2019-04-20T02:32:48.021Z,22.27
2019-04-20T02:35:10.928Z,20.90
2019-04-20T02:37:52.940Z,20.53
2019-04-20T02:40:09.334Z,20.13
2019-04-20T02:42:46.916Z,20.67
2019-04-20T02:45:18.777Z,19.83
2019-04-20T02:52:44.135Z,23.10
2019-04-20T02:55:03.068Z,21.17
2019-04-20T02:57:33.480Z,19.40
2019-04-20T03:02:11.398Z,21.70
2019-04-20T03:04:34.158Z,23.10
2019-04-20T03:07:06.769Z,21.57
2019-04-20T03:09:40.017Z,21.30
2019-04-20T03:12:08.106Z,23.60
2019-04-20T03:14:31.934Z,23.90
2019-04-20T03:17:01.460Z,25.00
2019-04-20T03:19:28.941Z,23.93
2019-04-20T03:22:04.692Z,24.07
2019-04-20T03:24:35.798Z,25.33
2019-04-20T03:26:57.875Z,23.67
2019-04-20T03:29:24.159Z,23.30
2019-04-20T03:32:25.720Z,25.43
2019-04-20T03:36:59.215Z,23.67
2019-04-20T03:39:19.031Z,20.03
2019-04-20T03:41:34.974Z,22.80
2019-04-20T03:44:04.508Z,21.63
2019-04-20T03:46:35.776Z,21.67
2019-04-20T03:49:09.552Z,24.37
2019-04-20T03:51:40.071Z,22.87
2019-04-20T03:54:05.427Z,18.60
2019-04-20T03:56:40.137Z,24.63
2019-04-20T03:59:01.777Z,26.43
2019-04-20T04:01:57.313Z,22.67
2019-04-20T04:04:09.461Z,23.77
2019-04-20T04:06:23.498Z,23.97
2019-04-20T04:08:56.151Z,22.07
2019-04-20T04:11:27.593Z,24.03
2019-04-20T04:13:37.779Z,25.90
2019-04-20T04:16:08.794Z,23.37
2019-04-20T04:18:39.072Z,24.73
2019-04-20T04:21:07.879Z,20.90
2019-04-20T04:23:44.848Z,22.47
2019-04-20T04:26:19.557Z,23.47
2019-04-20T04:28:43.336Z,26.87
2019-04-20T04:31:12.181Z,26.97
2019-04-20T04:36:10.097Z,24.47
2019-04-20T04:38:41.813Z,29.13
2019-04-20T04:41:16.428Z,25.70
2019-04-20T04:43:37.255Z,25.73
2019-04-20T04:45:46.956Z,31.90
2019-04-20T04:48:20.426Z,30.60
2019-04-20T04:50:49.108Z,27.03
2019-04-20T04:53:26.290Z,26.10
2019-04-20T04:55:48.953Z,25.20
2019-04-20T04:58:08.289Z,25.40
2019-04-20T05:00:36.431Z,25.00
2019-04-20T05:03:23.152Z,25.80
2019-04-20T05:05:51.770Z,27.13
2019-04-20T05:08:10.108Z,22.20
2019-04-20T05:10:29.213Z,25.80
2019-04-20T05:12:56.663Z,26.63
2019-04-20T05:15:39.377Z,26.83
2019-04-20T05:18:11.914Z,25.73
2019-04-20T05:20:41.596Z,25.97
2019-04-20T05:23:04.903Z,25.30
2019-04-20T05:25:31.139Z,25.97
2019-04-20T05:28:03.097Z,25.10
2019-04-20T05:30:14.043Z,24.60
2019-04-20T05:32:50.360Z,24.23
2019-04-20T05:35:31.119Z,28.83
2019-04-20T05:38:13.284Z,28.27
2019-04-20T05:40:29.153Z,27.17
2019-04-20T05:42:54.480Z,28.00
2019-04-20T05:45:22.033Z,24.40
2019-04-20T05:47:48.268Z,27.13
2019-04-20T05:50:18.438Z,27.40
2019-04-20T05:55:16.232Z,26.57
2019-04-20T05:57:41.996Z,26.07
2019-04-20T06:00:14.157Z,29.37
2019-04-20T06:02:44.031Z,27.57
2019-04-20T06:07:38.447Z,27.30
2019-04-20T06:10:19.071Z,28.60
2019-04-20T06:12:35.722Z,58.00
2019-04-20T06:15:02.695Z,60.27
2019-04-20T06:17:33.345Z,35.20
2019-04-20T06:20:09.037Z,33.27
2019-04-20T06:22:37.896Z,30.10
2019-04-20T06:25:01.942Z,30.20
2019-04-20T06:27:30.236Z,31.07
2019-04-20T06:29:54.507Z,42.03
2019-04-20T06:32:28.557Z,30.40
2019-04-20T06:34:49.019Z,33.80
2019-04-20T06:37:18.719Z,30.03
2019-04-20T06:39:54.367Z,29.87
2019-04-20T06:42:18.786Z,31.93
2019-04-20T06:44:39.285Z,28.40
2019-04-20T06:47:18.889Z,33.97
2019-04-20T06:49:56.758Z,29.53
2019-04-20T06:52:15.335Z,30.77
2019-04-20T06:54:40.678Z,33.00
2019-04-20T06:57:05.788Z,28.23
2019-04-20T06:59:39.005Z,27.93
2019-04-20T07:02:11.878Z,29.70
2019-04-20T07:04:45.332Z,26.37
2019-04-20T07:07:11.595Z,27.52
2019-04-20T07:09:40.099Z,28.85
2019-04-20T07:11:56.610Z,32.05
2019-04-20T07:14:11.808Z,26.85
2019-04-20T07:16:53.369Z,27.32
2019-04-20T07:19:24.035Z,33.15
2019-04-20T07:22:06.992Z,55.83
2019-04-20T07:24:26.830Z,67.80
2019-04-20T07:26:49.177Z,41.58
2019-04-20T07:29:24.018Z,37.53
2019-04-20T07:31:43.055Z,28.80
2019-04-20T07:34:10.466Z,26.62
2019-04-20T07:36:45.796Z,41.68
2019-04-20T07:39:19.386Z,33.08
2019-04-20T07:41:50.460Z,34.30
2019-04-20T07:44:10.714Z,23.42
2019-04-20T07:46:47.494Z,27.55
2019-04-20T07:49:07.429Z,23.27
2019-04-20T07:51:19.474Z,23.32
2019-04-20T07:54:06.531Z,40.08
2019-04-20T07:56:33.571Z,59.98
2019-04-20T07:58:47.503Z,199.15
2019-04-20T08:01:31.713Z,26.15
2019-04-20T08:03:55.677Z,21.75
2019-04-20T08:06:10.533Z,20.82
2019-04-20T08:08:43.819Z,22.25
2019-04-20T08:11:13.808Z,21.68
2019-04-20T08:14:06.186Z,19.00
2019-04-20T08:16:32.967Z,18.55
2019-04-20T08:19:05.114Z,20.55
2019-04-20T08:21:21.026Z,19.30
2019-04-20T08:23:39.799Z,18.02
2019-04-20T08:26:00.399Z,17.85
2019-04-20T08:28:24.999Z,18.55
2019-04-20T08:31:00.889Z,19.07
2019-04-20T08:33:34.962Z,19.37
2019-04-20T08:36:06.321Z,19.98
2019-04-20T08:40:58.376Z,18.00
2019-04-20T08:43:42.345Z,18.00
2019-04-20T08:45:58.880Z,19.05
2019-04-20T08:48:28.700Z,17.65
2019-04-20T08:50:53.319Z,16.62
2019-04-20T08:53:28.154Z,18.50
2019-04-20T08:55:46.601Z,16.67
2019-04-20T08:57:59.861Z,16.90
2019-04-20T09:00:34.834Z,23.75
2019-04-20T09:03:02.319Z,41.20
2019-04-20T09:05:34.761Z,15.65
2019-04-20T09:08:02.486Z,19.23
2019-04-20T09:10:46.750Z,21.05
2019-04-20T09:13:02.223Z,27.93
2019-04-20T09:15:17.016Z,16.93
2019-04-20T09:17:49.421Z,14.90
2019-04-20T09:20:26.513Z,15.45
2019-04-20T09:22:51.888Z,17.80
2019-04-20T09:27:44.958Z,16.15
2019-04-20T09:30:23.218Z,14.53
2019-04-20T09:32:49.152Z,14.15
2019-04-20T09:35:19.375Z,12.90
2019-04-20T09:37:51.098Z,13.25
2019-04-20T09:40:15.571Z,10.03
2019-04-20T09:42:27.739Z,11.65
2019-04-20T09:44:59.010Z,14.03
2019-04-20T09:47:27.963Z,13.38
2019-04-20T09:50:00.784Z,16.07
2019-04-20T09:52:32.210Z,13.38
2019-04-20T09:55:04.359Z,12.15
2019-04-20T09:57:33.517Z,10.35
2019-04-20T10:00:03.624Z,9.00
2019-04-20T10:02:18.738Z,9.13
2019-04-20T10:04:41.843Z,10.30
2019-04-20T10:07:15.876Z,10.23
2019-04-20T10:09:39.862Z,9.03
2019-04-20T10:12:05.689Z,8.13
2019-04-20T10:14:33.123Z,8.20
2019-04-20T10:17:00.111Z,7.40
2019-04-20T10:19:33.528Z,7.70
2019-04-20T10:21:55.273Z,6.75
2019-04-20T10:24:22.008Z,7.35
2019-04-20T10:26:50.358Z,7.25
2019-04-20T10:29:17.482Z,6.80
2019-04-20T10:31:50.518Z,6.37
2019-04-20T10:34:13.574Z,7.35
2019-04-20T10:36:41.652Z,6.53
2019-04-20T10:39:08.777Z,4.40
2019-04-20T10:41:44.645Z,3.33
2019-04-20T10:44:04.928Z,4.20
2019-04-20T10:46:33.215Z,4.50
2019-04-20T10:49:04.058Z,4.10
2019-04-20T10:51:29.508Z,4.65
2019-04-20T10:53:56.310Z,4.60
2019-04-20T10:56:23.252Z,4.08
2019-04-20T10:58:50.092Z,4.03
2019-04-20T11:01:17.833Z,3.80
2019-04-20T11:03:44.867Z,3.90
2019-04-20T11:06:11.607Z,4.10
2019-04-20T11:08:38.462Z,4.47
2019-04-20T11:11:12.968Z,4.30
2019-04-20T11:13:33.639Z,4.37
2019-04-20T11:16:00.372Z,4.58
2019-04-20T11:18:27.644Z,4.08
2019-04-20T11:20:55.339Z,3.50
2019-04-20T11:23:22.436Z,4.10
2019-04-20T11:25:50.490Z,3.77
2019-04-20T11:28:17.409Z,3.85
2019-04-20T11:30:44.163Z,3.87
2019-04-20T11:33:11.910Z,4.03
2019-04-20T11:35:41.639Z,4.08
2019-04-20T11:38:08.918Z,4.10
2019-04-20T11:40:35.553Z,3.37
2019-04-20T11:43:03.749Z,4.33
2019-04-20T11:45:30.969Z,4.05
2019-04-20T11:47:58.180Z,3.85
2019-04-20T11:50:25.284Z,3.67
2019-04-20T11:52:53.109Z,3.90
2019-04-20T11:55:20.246Z,4.20
2019-04-20T11:57:47.238Z,3.92
2019-04-20T12:00:15.072Z,3.40
2019-04-20T12:02:44.123Z,3.27
2019-04-20T12:05:21.307Z,3.12
2019-04-20T12:07:38.597Z,3.80
2019-04-20T12:10:10.090Z,3.12
2019-04-20T12:12:41.562Z,3.80
2019-04-20T12:15:02.139Z,3.27
2019-04-20T12:17:29.387Z,3.50
2019-04-20T12:19:56.148Z,2.72
2019-04-20T12:22:24.023Z,3.27
2019-04-20T12:24:52.122Z,3.50
2019-04-20T12:27:18.893Z,3.08
2019-04-20T12:29:45.790Z,3.22
2019-04-20T12:32:12.772Z,2.92
2019-04-20T12:34:39.529Z,2.50
2019-04-20T12:37:07.150Z,2.45
2019-04-20T12:39:35.263Z,3.10
2019-04-20T12:42:05.922Z,2.87
2019-04-20T12:44:30.489Z,2.75
2019-04-20T12:46:57.287Z,2.55
2019-04-20T12:49:25.352Z,2.50
2019-04-20T12:51:56.213Z,3.08
2019-04-20T12:54:20.791Z,3.00
2019-04-20T12:56:48.666Z,2.35
2019-04-20T12:59:15.818Z,2.92
2019-04-20T13:01:43.731Z,2.85
2019-04-20T13:04:10.485Z,2.77
2019-04-20T13:06:38.922Z,3.05
2019-04-20T13:09:05.841Z,2.87
2019-04-20T13:11:44.376Z,3.08
2019-04-20T13:14:02.111Z,2.62
2019-04-20T13:16:30.256Z,3.22
2019-04-20T13:18:57.274Z,2.92
2019-04-20T13:21:25.053Z,3.10
2019-04-20T13:23:53.142Z,2.87
2019-04-20T13:26:19.905Z,3.12
2019-04-20T13:28:46.841Z,3.12
2019-04-20T13:31:13.743Z,3.37
2019-04-20T13:33:41.182Z,2.62
2019-04-20T13:36:08.204Z,3.30
2019-04-20T13:38:36.265Z,2.85
2019-04-20T13:41:04.067Z,2.67
2019-04-20T13:43:32.006Z,3.60
2019-04-20T13:45:58.920Z,2.00
2019-04-20T13:48:26.675Z,1.85
2019-04-20T13:50:53.973Z,2.10
2019-04-20T13:53:21.200Z,2.37
2019-04-20T13:55:48.059Z,2.42
2019-04-20T13:58:16.010Z,2.67
2019-04-20T14:00:43.106Z,2.15
2019-04-20T14:03:11.066Z,2.05
2019-04-20T14:05:38.540Z,2.37
2019-04-20T14:08:05.369Z,1.90
2019-04-20T14:10:33.346Z,2.30
2019-04-20T14:13:07.537Z,2.70
2019-04-20T14:15:29.109Z,3.27
2019-04-20T14:17:57.187Z,2.75
2019-04-20T14:20:25.456Z,2.45
2019-04-20T14:22:52.499Z,4.30
2019-04-20T14:25:19.227Z,2.45
2019-04-20T14:27:46.660Z,2.65
2019-04-20T14:30:15.014Z,3.22
2019-04-20T14:32:42.988Z,3.02
2019-04-20T14:35:11.229Z,3.22
2019-04-20T14:37:39.437Z,4.20
2019-04-20T14:40:06.273Z,3.55
2019-04-20T14:42:39.457Z,3.87
2019-04-20T14:45:01.893Z,3.98
2019-04-20T14:47:29.758Z,3.95
2019-04-20T14:49:58.309Z,4.87
2019-04-20T14:52:25.898Z,4.35
2019-04-20T14:54:53.207Z,4.40
2019-04-20T14:57:21.323Z,3.25
2019-04-20T14:59:49.475Z,4.03
2019-04-20T15:02:17.407Z,3.67
2019-04-20T15:04:45.319Z,3.52
2019-04-20T15:07:12.987Z,4.10
2019-04-20T15:09:40.630Z,4.62
2019-04-20T15:12:08.680Z,3.40
2019-04-20T15:14:36.743Z,4.45
2019-04-20T15:17:04.756Z,3.47
2019-04-20T15:19:31.733Z,3.33
2019-04-20T15:21:59.518Z,3.62
2019-04-20T15:24:27.399Z,3.80
2019-04-20T15:26:54.314Z,3.17
2019-04-20T15:29:22.224Z,3.47
2019-04-20T15:31:50.067Z,5.40
2019-04-20T15:34:17.073Z,3.65
2019-04-20T15:36:44.315Z,4.45
2019-04-20T15:39:11.427Z,4.83
2019-04-20T15:41:39.077Z,4.17
2019-04-20T15:44:07.161Z,5.05
2019-04-20T15:46:36.241Z,5.28
2019-04-20T15:49:02.354Z,3.92
2019-04-20T15:51:29.980Z,5.30
2019-04-20T15:53:57.736Z,6.37
2019-04-20T15:56:24.877Z,7.95
2019-04-20T15:58:52.539Z,6.75
2019-04-20T16:01:20.544Z,5.20
2019-04-20T16:03:47.618Z,5.17
2019-04-20T16:06:14.477Z,6.20
2019-04-20T16:08:42.118Z,8.30
2019-04-20T16:11:09.256Z,8.53
2019-04-20T16:13:40.285Z,6.13
2019-04-20T16:16:05.810Z,4.95
2019-04-20T16:18:32.874Z,6.67
2019-04-20T16:21:06.231Z,6.73
2019-04-20T16:23:28.364Z,6.77
2019-04-20T16:25:55.459Z,5.03
2019-04-20T16:28:23.684Z,5.60
2019-04-20T16:30:51.721Z,7.97
2019-04-20T16:33:18.716Z,6.57
2019-04-20T16:35:46.758Z,4.20
2019-04-20T16:38:14.203Z,4.80
2019-04-20T16:40:42.087Z,5.00
2019-04-20T16:43:17.702Z,4.80
2019-04-20T16:45:37.520Z,6.33
2019-04-20T16:48:05.475Z,4.83
2019-04-20T16:50:33.120Z,6.03
2019-04-20T16:53:01.058Z,5.07
2019-04-20T16:55:28.490Z,4.50
2019-04-20T16:57:55.583Z,7.10
2019-04-20T17:00:23.276Z,5.93
2019-04-20T17:02:50.141Z,6.23
2019-04-20T17:05:17.007Z,6.63
2019-04-20T17:07:44.896Z,9.13
2019-04-20T17:10:11.977Z,6.53
2019-04-20T17:12:39.953Z,8.43
2019-04-20T17:15:07.907Z,8.43
2019-04-20T17:17:35.760Z,7.87
2019-04-20T17:20:03.850Z,7.30
2019-04-20T17:22:31.722Z,8.27
2019-04-20T17:24:58.501Z,6.33
2019-04-20T17:27:26.667Z,7.53
2019-04-20T17:29:54.656Z,8.33
2019-04-20T17:32:21.528Z,7.50
2019-04-20T17:35:04.344Z,8.77
2019-04-20T17:37:16.699Z,7.13
2019-04-20T17:40:09.308Z,7.00
2019-04-20T17:42:25.114Z,6.67
2019-04-20T17:44:52.053Z,6.90
2019-04-20T17:47:26.117Z,6.10
2019-04-20T17:49:57.600Z,8.30
2019-04-20T17:52:32.389Z,7.10
2019-04-20T17:54:35.490Z,6.20
2019-04-20T17:57:02.431Z,5.17
2019-04-20T17:59:30.285Z,5.50
2019-04-20T18:02:11.815Z,5.43
2019-04-20T18:04:59.031Z,5.30
2019-04-20T18:07:17.494Z,5.10
2019-04-20T18:09:44.766Z,5.87
2019-04-20T18:11:55.848Z,6.67
2019-04-20T18:14:40.120Z,6.70
2019-04-20T18:17:09.117Z,7.97
2019-04-20T18:19:21.926Z,6.37
2019-04-20T18:21:45.487Z,6.23
2019-04-20T18:24:24.236Z,7.27
2019-04-20T18:26:57.676Z,6.43
2019-04-20T18:29:25.691Z,5.77
2019-04-20T18:31:37.653Z,9.27
2019-04-20T18:34:08.943Z,7.80
2019-04-20T18:36:37.540Z,7.73
2019-04-20T18:39:06.163Z,7.40
2019-04-20T18:41:38.492Z,8.63
2019-04-20T18:43:59.169Z,8.07
2019-04-20T18:46:49.518Z,7.97
2019-04-20T18:49:15.002Z,8.87
2019-04-20T18:51:23.909Z,8.97
2019-04-20T18:53:53.480Z,8.87
2019-04-20T18:56:25.591Z,9.67
2019-04-20T18:58:49.168Z,8.40
2019-04-20T19:01:17.055Z,10.00
2019-04-20T19:03:47.232Z,12.20
2019-04-20T19:06:12.495Z,8.90
2019-04-20T19:08:46.138Z,9.53
2019-04-20T19:11:14.242Z,9.30
2019-04-20T19:13:40.662Z,10.37
2019-04-20T19:16:16.640Z,9.43
2019-04-20T19:18:50.711Z,9.23
2019-04-20T19:21:03.423Z,10.23
2019-04-20T19:23:30.405Z,9.50
2019-04-20T19:26:04.435Z,9.40
2019-04-20T19:28:30.616Z,9.93
2019-04-20T19:31:06.778Z,8.13
2019-04-20T19:33:33.065Z,8.93
2019-04-20T19:35:59.728Z,8.30
2019-04-20T19:38:24.537Z,8.00
2019-04-20T19:40:58.183Z,6.63
2019-04-20T19:43:25.322Z,9.03
2019-04-20T19:46:25.524Z,9.70
2019-04-20T19:48:29.360Z,5.93
2019-04-20T19:51:05.909Z,7.33
2019-04-20T19:53:30.353Z,8.57
2019-04-20T19:55:53.084Z,6.90
2019-04-20T19:58:22.070Z,7.50
2019-04-20T20:00:36.520Z,9.00
2019-04-20T20:03:03.699Z,7.20
2019-04-20T20:05:37.445Z,7.83
2019-04-20T20:08:06.463Z,8.47
2019-04-20T20:10:33.940Z,8.13
2019-04-20T20:13:00.359Z,6.57
2019-04-20T20:15:29.556Z,7.70
2019-04-20T20:18:12.398Z,7.97
2019-04-20T20:20:41.120Z,7.87
2019-04-20T20:22:53.127Z,7.70
2019-04-20T20:25:19.000Z,8.03
2019-04-20T20:27:52.413Z,7.87
2019-04-20T20:30:23.127Z,8.10
2019-04-20T20:32:59.492Z,7.73
2019-04-20T20:35:16.711Z,8.23
2019-04-20T20:37:46.960Z,10.43
2019-04-20T20:40:18.994Z,7.57
2019-04-20T20:42:54.059Z,8.43
2019-04-20T20:45:16.149Z,7.60
2019-04-20T20:47:55.336Z,9.87
2019-04-20T20:50:23.432Z,9.87
2019-04-20T20:52:46.505Z,7.70
2019-04-20T20:55:06.502Z,9.93
2019-04-20T20:57:43.673Z,13.67
2019-04-20T21:00:03.696Z,10.10
2019-04-20T21:02:38.971Z,7.87
2019-04-20T21:04:53.815Z,8.47
2019-04-20T21:07:20.643Z,10.30
2019-04-20T21:09:48.336Z,7.53
2019-04-20T21:12:17.805Z,8.17
2019-04-20T21:14:44.131Z,9.07
2019-04-20T21:17:17.823Z,10.53
2019-04-20T21:19:57.956Z,10.00
2019-04-20T21:22:17.326Z,11.43
2019-04-20T21:24:37.962Z,11.20
2019-04-20T21:27:07.903Z,10.93
2019-04-20T21:29:36.787Z,13.73
2019-04-20T21:32:08.858Z,11.73
2019-04-20T21:34:31.212Z,10.10
2019-04-20T21:37:03.541Z,13.03
2019-04-20T21:39:37.340Z,12.97
2019-04-20T21:42:03.944Z,10.70
2019-04-20T21:44:28.503Z,7.60
2019-04-20T21:46:54.569Z,11.33
2019-04-20T21:49:37.588Z,11.17
2019-04-20T21:51:55.391Z,11.53
2019-04-20T21:54:18.212Z,10.77
2019-04-20T21:56:54.969Z,10.90
2019-04-20T21:59:22.663Z,10.73
2019-04-20T22:01:53.480Z,12.83
2019-04-20T22:04:12.176Z,11.57
2019-04-20T22:06:40.346Z,21.03
2019-04-20T22:09:09.034Z,11.63
2019-04-20T22:11:35.909Z,17.23
2019-04-20T22:14:09.393Z,10.43
2019-04-20T22:16:38.103Z,12.87
2019-04-20T22:19:17.271Z,13.77
2019-04-20T22:21:43.565Z,12.60
2019-04-20T22:24:11.668Z,11.07
2019-04-20T22:26:32.645Z,9.50
2019-04-20T22:28:54.150Z,11.93
2019-04-20T22:31:22.249Z,11.67
2019-04-20T22:33:50.450Z,9.87
2019-04-20T22:36:18.188Z,11.90
2019-04-20T22:38:51.153Z,7.77
2019-04-20T22:41:17.428Z,9.53
2019-04-20T22:43:42.200Z,9.50
2019-04-20T22:46:09.561Z,11.37
2019-04-20T22:48:38.465Z,12.17
2019-04-20T22:51:19.688Z,11.07
2019-04-20T22:53:45.396Z,10.33
2019-04-20T22:56:22.806Z,11.10
2019-04-20T22:58:47.937Z,10.27
2019-04-20T23:01:03.893Z,12.03
2019-04-20T23:03:28.143Z,9.43
2019-04-20T23:05:55.001Z,10.80
2019-04-20T23:08:22.436Z,12.90
2019-04-20T23:10:49.786Z,11.00
2019-04-20T23:13:16.666Z,10.90
2019-04-20T23:15:50.040Z,12.47
2019-04-20T23:18:13.941Z,14.00
2019-04-20T23:20:42.435Z,12.03
2019-04-20T23:23:11.026Z,13.93
2019-04-20T23:25:38.998Z,17.00
2019-04-20T23:28:10.107Z,11.37
2019-04-20T23:30:38.868Z,13.40
2019-04-20T23:33:04.171Z,11.83
2019-04-20T23:35:31.743Z,14.13
2019-04-20T23:38:07.577Z,13.40
2019-04-20T23:40:29.902Z,13.03
2019-04-20T23:42:57.980Z,11.53
2019-04-20T23:45:33.699Z,9.47
2019-04-20T23:47:58.827Z,12.73
2019-04-20T23:50:42.955Z,10.47
2019-04-20T23:53:10.064Z,11.03
2019-04-20T23:55:19.097Z,13.40
2019-04-20T23:57:54.701Z,11.23
